KLM765 EHAM-TNCB
Flight info
| Callsign | KLM765 |
|---|---|
| Flight time | 2h 56m |
| Altitude | 34000 |
| Route | IDRID L980 LAM L179 UGBET Q60 OKSAW DCT FELCA DCT FADZU DCT BANBA DCT ADARA/M083F340 DCT 51N020W 48N030W 42N040W 35N050W/M083F360 DCT SIFEN DCT TARMO DCT OPAUL/N0480F380 L327 SCAPA SCAPA1N |
| Aircraft | B77W/H-SDE1E2E3FGHIJ2J3J4J5M1RWXY/LB1D1 |
Departure
| Time | 2026-04-28 08:55 |
|---|---|
| Airport | Amsterdam Airport Schiphol (EHAM) |
Arrival
| Time | 2026-04-28 11:51 |
|---|---|
| Airport | Flamingo International Airport (TNCB) |
| Time | Latitude | Longitude | Altitude | Speed | Heading |
|---|---|---|---|---|---|
| 2026-04-28 08:13 | 52.31280 | 4.76936 | 4 ft | 0 kts | 304° |
| 2026-04-28 08:14 | 52.31285 | 4.76924 | 4 ft | 0 kts | 303° |
| 2026-04-28 08:35 | 52.31280 | 4.76937 | 4 ft | 3 kts | 302° |
| 2026-04-28 08:35 | 52.31270 | 4.76965 | -24 ft | 3 kts | 299° |
| 2026-04-28 08:35 | 52.31260 | 4.76993 | 13 ft | 3 kts | 313° |
| 2026-04-28 08:36 | 52.31252 | 4.77008 | 8 ft | 3 kts | 18° |
| 2026-04-28 08:36 | 52.31258 | 4.77031 | 5 ft | 3 kts | 70° |
| 2026-04-28 08:36 | 52.31260 | 4.77040 | 4 ft | 0 kts | 69° |
| 2026-04-28 08:36 | 52.31271 | 4.77064 | 4 ft | 3 kts | 45° |
| 2026-04-28 08:37 | 52.31284 | 4.77087 | 4 ft | 3 kts | 51° |
| 2026-04-28 08:37 | 52.31293 | 4.77116 | 4 ft | 3 kts | 67° |
| 2026-04-28 08:37 | 52.31296 | 4.77148 | 4 ft | 3 kts | 86° |
| 2026-04-28 08:37 | 52.31296 | 4.77181 | 4 ft | 3 kts | 94° |
| 2026-04-28 08:38 | 52.31294 | 4.77214 | 4 ft | 3 kts | 94° |
| 2026-04-28 08:38 | 52.31293 | 4.77246 | 4 ft | 2 kts | 93° |
| 2026-04-28 08:38 | 52.31292 | 4.77254 | 4 ft | 0 kts | 92° |
| 2026-04-28 08:44 | 52.31292 | 4.77256 | 4 ft | 1 kts | 92° |
| 2026-04-28 08:44 | 52.31291 | 4.77302 | 4 ft | 8 kts | 92° |
| 2026-04-28 08:44 | 52.31291 | 4.77409 | 4 ft | 12 kts | 78° |
| 2026-04-28 08:45 | 52.31317 | 4.77445 | 4 ft | 2 kts | 1° |
| 2026-04-28 08:45 | 52.31332 | 4.77430 | 4 ft | 4 kts | 319° |
| 2026-04-28 08:45 | 52.31372 | 4.77378 | 4 ft | 10 kts | 336° |
| 2026-04-28 08:45 | 52.31433 | 4.77414 | 4 ft | 10 kts | 41° |
| 2026-04-28 08:46 | 52.31483 | 4.77485 | 4 ft | 8 kts | 40° |
| 2026-04-28 08:46 | 52.31529 | 4.77517 | 4 ft | 7 kts | 359° |
| 2026-04-28 08:46 | 52.31563 | 4.77463 | 4 ft | 7 kts | 295° |
| 2026-04-28 08:46 | 52.31576 | 4.77377 | 4 ft | 10 kts | 276° |
| 2026-04-28 08:47 | 52.31572 | 4.77209 | 3 ft | 19 kts | 266° |
| 2026-04-28 08:47 | 52.31564 | 4.76989 | 4 ft | 20 kts | 266° |
| 2026-04-28 08:47 | 52.31557 | 4.76763 | 4 ft | 20 kts | 266° |
| 2026-04-28 08:47 | 52.31549 | 4.76541 | 4 ft | 20 kts | 266° |
| 2026-04-28 08:48 | 52.31541 | 4.76317 | 4 ft | 20 kts | 266° |
| 2026-04-28 08:48 | 52.31533 | 4.76095 | 4 ft | 20 kts | 266° |
| 2026-04-28 08:48 | 52.31525 | 4.75873 | 4 ft | 20 kts | 267° |
| 2026-04-28 08:48 | 52.31517 | 4.75649 | 4 ft | 20 kts | 266° |
| 2026-04-28 08:49 | 52.31510 | 4.75423 | 4 ft | 20 kts | 268° |
| 2026-04-28 08:49 | 52.31499 | 4.75161 | 3 ft | 0 kts | 269° |
| 2026-04-28 08:49 | 52.31498 | 4.75097 | 4 ft | 14 kts | 269° |
| 2026-04-28 08:49 | 52.31493 | 4.74893 | 4 ft | 20 kts | 266° |
| 2026-04-28 08:50 | 52.31485 | 4.74671 | 4 ft | 20 kts | 267° |
| 2026-04-28 08:50 | 52.31477 | 4.74447 | 4 ft | 20 kts | 266° |
| 2026-04-28 08:50 | 52.31468 | 4.74248 | 4 ft | 13 kts | 259° |
| 2026-04-28 08:50 | 52.31411 | 4.74140 | 4 ft | 13 kts | 192° |
| 2026-04-28 08:51 | 52.31317 | 4.74132 | 4 ft | 13 kts | 183° |
| 2026-04-28 08:51 | 52.31224 | 4.74124 | 4 ft | 13 kts | 183° |
| 2026-04-28 08:51 | 52.31131 | 4.74117 | 4 ft | 13 kts | 182° |
| 2026-04-28 08:51 | 52.31033 | 4.74104 | 4 ft | 17 kts | 182° |
| 2026-04-28 08:52 | 52.30902 | 4.74094 | 4 ft | 19 kts | 184° |
| 2026-04-28 08:52 | 52.30770 | 4.74081 | 4 ft | 19 kts | 183° |
| 2026-04-28 08:52 | 52.30658 | 4.74072 | 4 ft | 16 kts | 182° |
| 2026-04-28 08:52 | 52.30550 | 4.74063 | 4 ft | 16 kts | 182° |
| 2026-04-28 08:53 | 52.30443 | 4.74053 | 4 ft | 16 kts | 183° |
| 2026-04-28 08:53 | 52.30339 | 4.74018 | 4 ft | 13 kts | 202° |
| 2026-04-28 08:53 | 52.30288 | 4.73985 | 4 ft | 6 kts | 201° |
| 2026-04-28 08:53 | 52.30249 | 4.73949 | 4 ft | 6 kts | 216° |
| 2026-04-28 08:54 | 52.30214 | 4.73905 | 3 ft | 6 kts | 221° |
| 2026-04-28 08:54 | 52.30186 | 4.73823 | 3 ft | 11 kts | 261° |
| 2026-04-28 08:54 | 52.30210 | 4.73742 | 2 ft | 7 kts | 344° |
| 2026-04-28 08:54 | 52.30276 | 4.73745 | 1 ft | 19 kts | 3° |
| 2026-04-28 08:55 | 52.30545 | 4.73770 | 2 ft | 68 kts | 3° |
| 2026-04-28 08:55 | 52.31222 | 4.73831 | 2 ft | 127 kts | 2° |
| 2026-04-28 08:55 | 52.32280 | 4.73917 | 23 ft | 171 kts | 3° |
| 2026-04-28 08:55 | 52.33431 | 4.73996 | 608 ft | 161 kts | 8° |
| 2026-04-28 08:56 | 52.34573 | 4.73902 | 1029 ft | 171 kts | 357° |
| 2026-04-28 08:56 | 52.35766 | 4.73603 | 1453 ft | 177 kts | 359° |
| 2026-04-28 08:56 | 52.37019 | 4.73315 | 1765 ft | 187 kts | 359° |
| 2026-04-28 08:56 | 52.38366 | 4.73006 | 1947 ft | 208 kts | 0° |
| 2026-04-28 08:57 | 52.39861 | 4.72683 | 2228 ft | 225 kts | 359° |
| 2026-04-28 08:57 | 52.41471 | 4.72298 | 2630 ft | 236 kts | 358° |
| 2026-04-28 08:57 | 52.43094 | 4.71714 | 3064 ft | 254 kts | 339° |
| 2026-04-28 08:57 | 52.44528 | 4.69859 | 3499 ft | 268 kts | 318° |
| 2026-04-28 08:58 | 52.45810 | 4.67602 | 4087 ft | 274 kts | 313° |
| 2026-04-28 08:58 | 52.46630 | 4.64732 | 4644 ft | 287 kts | 278° |
| 2026-04-28 08:58 | 52.46610 | 4.61500 | 5390 ft | 283 kts | 270° |
| 2026-04-28 08:58 | 52.46611 | 4.58261 | 6017 ft | 286 kts | 273° |
| 2026-04-28 08:59 | 52.46517 | 4.54987 | 6532 ft | 289 kts | 253° |
| 2026-04-28 08:59 | 52.45509 | 4.52145 | 6969 ft | 291 kts | 218° |
| 2026-04-28 08:59 | 52.43828 | 4.50355 | 7505 ft | 287 kts | 206° |
| 2026-04-28 08:59 | 52.42202 | 4.48494 | 8004 ft | 292 kts | 226° |
| 2026-04-28 09:00 | 52.41151 | 4.45652 | 8495 ft | 296 kts | 243° |
| 2026-04-28 09:00 | 52.40225 | 4.42598 | 9073 ft | 299 kts | 240° |
| 2026-04-28 09:00 | 52.39267 | 4.39615 | 9753 ft | 299 kts | 239° |
| 2026-04-28 09:00 | 52.38277 | 4.36578 | 10306 ft | 303 kts | 239° |
| 2026-04-28 09:01 | 52.37286 | 4.33547 | 10752 ft | 312 kts | 239° |
| 2026-04-28 09:01 | 52.36216 | 4.30281 | 10901 ft | 333 kts | 240° |
| 2026-04-28 09:01 | 52.35087 | 4.26829 | 11064 ft | 354 kts | 240° |
| 2026-04-28 09:01 | 52.33898 | 4.23197 | 11228 ft | 374 kts | 240° |
| 2026-04-28 09:02 | 52.32644 | 4.19372 | 11715 ft | 385 kts | 239° |
| 2026-04-28 09:02 | 52.31339 | 4.15566 | 12418 ft | 389 kts | 236° |
| 2026-04-28 09:02 | 52.29753 | 4.11934 | 13127 ft | 395 kts | 229° |
| 2026-04-28 09:02 | 52.28050 | 4.08420 | 13854 ft | 400 kts | 229° |
| 2026-04-28 09:03 | 52.26303 | 4.04822 | 14614 ft | 404 kts | 229° |
| 2026-04-28 09:03 | 52.24551 | 4.01204 | 15387 ft | 406 kts | 229° |
| 2026-04-28 09:03 | 52.22813 | 3.97600 | 16136 ft | 410 kts | 229° |
| 2026-04-28 09:03 | 52.21038 | 3.93913 | 16919 ft | 412 kts | 230° |
| 2026-04-28 09:04 | 52.19265 | 3.90225 | 17650 ft | 416 kts | 229° |
| 2026-04-28 09:04 | 52.17481 | 3.86517 | 18358 ft | 420 kts | 229° |
| 2026-04-28 09:04 | 52.15665 | 3.82746 | 19003 ft | 424 kts | 229° |
| 2026-04-28 09:04 | 52.13841 | 3.78964 | 19691 ft | 426 kts | 228° |
| 2026-04-28 09:05 | 52.12021 | 3.75192 | 20224 ft | 431 kts | 229° |
| 2026-04-28 09:05 | 52.10147 | 3.71316 | 20816 ft | 435 kts | 229° |
| 2026-04-28 09:05 | 52.08279 | 3.67459 | 21380 ft | 439 kts | 229° |
| 2026-04-28 09:05 | 52.06363 | 3.63506 | 21945 ft | 443 kts | 228° |
| 2026-04-28 09:06 | 52.04463 | 3.59594 | 22575 ft | 446 kts | 229° |
| 2026-04-28 09:06 | 52.02526 | 3.55607 | 23197 ft | 448 kts | 228° |
| 2026-04-28 09:06 | 52.00601 | 3.51657 | 23738 ft | 452 kts | 228° |
| 2026-04-28 09:06 | 51.98640 | 3.47605 | 24265 ft | 454 kts | 230° |
| 2026-04-28 09:07 | 51.96776 | 3.43524 | 24963 ft | 451 kts | 231° |
| 2026-04-28 09:07 | 51.94946 | 3.39416 | 25368 ft | 457 kts | 231° |
| 2026-04-28 09:07 | 51.93057 | 3.35175 | 25645 ft | 464 kts | 231° |
| 2026-04-28 09:07 | 51.91154 | 3.30938 | 25997 ft | 469 kts | 231° |
| 2026-04-28 09:08 | 51.89213 | 3.26659 | 26355 ft | 473 kts | 231° |
| 2026-04-28 09:08 | 51.87304 | 3.22373 | 26876 ft | 474 kts | 235° |
| 2026-04-28 09:08 | 51.85733 | 3.17662 | 27176 ft | 483 kts | 245° |
| 2026-04-28 09:08 | 51.84653 | 3.12460 | 27534 ft | 489 kts | 254° |
| 2026-04-28 09:09 | 51.84091 | 3.07059 | 28075 ft | 490 kts | 263° |
| 2026-04-28 09:09 | 51.83792 | 3.01542 | 28550 ft | 491 kts | 263° |
| 2026-04-28 09:09 | 51.83492 | 2.96050 | 28921 ft | 494 kts | 263° |
| 2026-04-28 09:09 | 51.83165 | 2.90491 | 29356 ft | 496 kts | 264° |
| 2026-04-28 09:10 | 51.82813 | 2.84871 | 29539 ft | 502 kts | 264° |
| 2026-04-28 09:10 | 51.82445 | 2.79300 | 29751 ft | 508 kts | 264° |
| 2026-04-28 09:10 | 51.82063 | 2.73582 | 30177 ft | 508 kts | 264° |
| 2026-04-28 09:10 | 51.81685 | 2.67954 | 30572 ft | 508 kts | 264° |
| 2026-04-28 09:11 | 51.81303 | 2.62320 | 30854 ft | 510 kts | 264° |
| 2026-04-28 09:11 | 51.80907 | 2.56569 | 31143 ft | 510 kts | 263° |
| 2026-04-28 09:11 | 51.80514 | 2.50910 | 31874 ft | 500 kts | 263° |
| 2026-04-28 09:11 | 51.80128 | 2.45389 | 32245 ft | 501 kts | 263° |
| 2026-04-28 09:12 | 51.79731 | 2.39734 | 32368 ft | 506 kts | 264° |
| 2026-04-28 09:12 | 51.79335 | 2.34121 | 32567 ft | 508 kts | 264° |
| 2026-04-28 09:12 | 51.78931 | 2.28415 | 32841 ft | 509 kts | 264° |
| 2026-04-28 09:12 | 51.78523 | 2.22702 | 33103 ft | 509 kts | 263° |
| 2026-04-28 09:13 | 51.78153 | 2.17146 | 33875 ft | 498 kts | 264° |
| 2026-04-28 09:13 | 51.77823 | 2.11591 | 34283 ft | 496 kts | 265° |
| 2026-04-28 09:13 | 51.77507 | 2.05998 | 34257 ft | 501 kts | 265° |
| 2026-04-28 09:14 | 51.76863 | 1.94757 | 34271 ft | 503 kts | 264° |
| 2026-04-28 09:14 | 51.76188 | 1.83517 | 34301 ft | 507 kts | 265° |
| 2026-04-28 09:15 | 51.75489 | 1.72218 | 34291 ft | 506 kts | 265° |
| 2026-04-28 09:15 | 51.74781 | 1.60873 | 34296 ft | 505 kts | 265° |
| 2026-04-28 09:16 | 51.74055 | 1.49636 | 34293 ft | 506 kts | 264° |
| 2026-04-28 09:16 | 51.73312 | 1.38332 | 34292 ft | 507 kts | 264° |
| 2026-04-28 09:17 | 51.72561 | 1.26999 | 34303 ft | 507 kts | 265° |
| 2026-04-28 09:17 | 51.71806 | 1.15737 | 34297 ft | 507 kts | 265° |
| 2026-04-28 09:18 | 51.71038 | 1.04408 | 34308 ft | 506 kts | 264° |
| 2026-04-28 09:18 | 51.70280 | 0.93151 | 34289 ft | 506 kts | 265° |
| 2026-04-28 09:19 | 51.69493 | 0.81885 | 34288 ft | 506 kts | 265° |
| 2026-04-28 09:19 | 51.68687 | 0.70641 | 34308 ft | 506 kts | 264° |
| 2026-04-28 09:20 | 51.67861 | 0.59399 | 34304 ft | 505 kts | 265° |
| 2026-04-28 09:20 | 51.67069 | 0.48163 | 34279 ft | 506 kts | 264° |
| 2026-04-28 09:21 | 51.66251 | 0.36929 | 34293 ft | 506 kts | 264° |
| 2026-04-28 09:21 | 51.65395 | 0.25639 | 34308 ft | 507 kts | 264° |
| 2026-04-28 09:22 | 51.64535 | 0.14357 | 34321 ft | 507 kts | 264° |
| 2026-04-28 09:22 | 51.63358 | 0.03158 | 34331 ft | 508 kts | 261° |
| 2026-04-28 09:23 | 51.62174 | -0.07998 | 34400 ft | 508 kts | 266° |
| 2026-04-28 09:23 | 51.62049 | -0.19329 | 34425 ft | 506 kts | 278° |
| 2026-04-28 09:24 | 51.62786 | -0.30589 | 34440 ft | 508 kts | 278° |
| 2026-04-28 09:24 | 51.63160 | -0.36274 | 34318 ft | 508 kts | 278° |
| 2026-04-28 09:24 | 51.63517 | -0.41904 | 34314 ft | 509 kts | 278° |
| 2026-04-28 09:25 | 51.64207 | -0.53310 | 34322 ft | 510 kts | 278° |
| 2026-04-28 09:25 | 51.64861 | -0.64593 | 34320 ft | 510 kts | 278° |
| 2026-04-28 09:26 | 51.65402 | -0.74081 | 34320 ft | 509 kts | 278° |
| 2026-04-28 09:26 | 51.66146 | -0.87300 | 34313 ft | 508 kts | 277° |
| 2026-04-28 09:27 | 51.66980 | -1.02413 | 34308 ft | 508 kts | 278° |
| 2026-04-28 09:27 | 51.67592 | -1.13741 | 34322 ft | 508 kts | 278° |
| 2026-04-28 09:28 | 51.68194 | -1.25069 | 34320 ft | 508 kts | 278° |
| 2026-04-28 09:28 | 51.68788 | -1.36496 | 34325 ft | 509 kts | 278° |
| 2026-04-28 09:29 | 51.69366 | -1.47810 | 34302 ft | 510 kts | 278° |
| 2026-04-28 09:29 | 51.69940 | -1.59249 | 34321 ft | 511 kts | 278° |
| 2026-04-28 09:30 | 51.70506 | -1.70635 | 34332 ft | 512 kts | 278° |
| 2026-04-28 09:30 | 51.71282 | -1.82044 | 34332 ft | 511 kts | 281° |
| 2026-04-28 09:31 | 51.72156 | -1.93389 | 34339 ft | 512 kts | 281° |
| 2026-04-28 09:31 | 51.73001 | -2.04844 | 34337 ft | 512 kts | 281° |
| 2026-04-28 09:32 | 51.73803 | -2.16261 | 34343 ft | 513 kts | 280° |
| 2026-04-28 09:32 | 51.74584 | -2.27677 | 34345 ft | 513 kts | 280° |
| 2026-04-28 09:33 | 51.75355 | -2.39111 | 34340 ft | 514 kts | 280° |
| 2026-04-28 09:33 | 51.76119 | -2.50584 | 34345 ft | 513 kts | 281° |
| 2026-04-28 09:34 | 51.76869 | -2.61990 | 34333 ft | 513 kts | 280° |
| 2026-04-28 09:34 | 51.77611 | -2.73450 | 34337 ft | 512 kts | 280° |
| 2026-04-28 09:35 | 51.78340 | -2.84899 | 34425 ft | 512 kts | 281° |
| 2026-04-28 09:35 | 51.79062 | -2.96394 | 34416 ft | 513 kts | 282° |
| 2026-04-28 09:36 | 51.79770 | -3.07840 | 34424 ft | 515 kts | 282° |
| 2026-04-28 09:36 | 51.80474 | -3.19415 | 34405 ft | 516 kts | 282° |
| 2026-04-28 09:37 | 51.81159 | -3.30900 | 34380 ft | 517 kts | 281° |
| 2026-04-28 09:37 | 51.81838 | -3.42449 | 34329 ft | 517 kts | 282° |
| 2026-04-28 09:38 | 51.82536 | -3.54003 | 34350 ft | 514 kts | 285° |
| 2026-04-28 09:38 | 51.83900 | -3.65224 | 34360 ft | 509 kts | 290° |
| 2026-04-28 09:39 | 51.85422 | -3.76472 | 34359 ft | 511 kts | 290° |
| 2026-04-28 09:39 | 51.86868 | -3.87694 | 34363 ft | 512 kts | 289° |
| 2026-04-28 09:40 | 51.88239 | -3.99010 | 34357 ft | 514 kts | 286° |
| 2026-04-28 09:40 | 51.88810 | -4.10678 | 34357 ft | 519 kts | 281° |
| 2026-04-28 09:41 | 51.89196 | -4.22287 | 34357 ft | 518 kts | 281° |
| 2026-04-28 09:41 | 51.89604 | -4.33900 | 34360 ft | 517 kts | 281° |
| 2026-04-28 09:42 | 51.90038 | -4.45553 | 34336 ft | 516 kts | 281° |
| 2026-04-28 09:42 | 51.90465 | -4.57090 | 34347 ft | 517 kts | 281° |
| 2026-04-28 09:43 | 51.90883 | -4.68737 | 34360 ft | 518 kts | 281° |
| 2026-04-28 09:43 | 51.91285 | -4.80345 | 34353 ft | 519 kts | 281° |
| 2026-04-28 09:44 | 51.91676 | -4.92011 | 34324 ft | 519 kts | 281° |
| 2026-04-28 09:44 | 51.92057 | -5.03701 | 34360 ft | 519 kts | 280° |
| 2026-04-28 09:45 | 51.92425 | -5.15351 | 34379 ft | 519 kts | 280° |
| 2026-04-28 09:45 | 51.92783 | -5.27095 | 34362 ft | 520 kts | 280° |
| 2026-04-28 09:46 | 51.93129 | -5.38790 | 34365 ft | 520 kts | 279° |
| 2026-04-28 09:46 | 51.93464 | -5.50476 | 34379 ft | 520 kts | 279° |
| 2026-04-28 09:47 | 51.93787 | -5.62182 | 34372 ft | 520 kts | 279° |
| 2026-04-28 09:47 | 51.94100 | -5.73916 | 34376 ft | 521 kts | 279° |
| 2026-04-28 09:48 | 51.94400 | -5.85635 | 34376 ft | 521 kts | 279° |
| 2026-04-28 09:48 | 51.94687 | -5.97331 | 34383 ft | 520 kts | 278° |
| 2026-04-28 09:49 | 51.94963 | -6.08955 | 34385 ft | 519 kts | 278° |
| 2026-04-28 09:49 | 51.95230 | -6.20643 | 34385 ft | 519 kts | 278° |
| 2026-04-28 09:50 | 51.95250 | -6.32419 | 34392 ft | 521 kts | 275° |
| 2026-04-28 09:50 | 51.95041 | -6.44057 | 34384 ft | 519 kts | 274° |
| 2026-04-28 09:51 | 51.94809 | -6.55768 | 34384 ft | 517 kts | 274° |
| 2026-04-28 09:51 | 51.94592 | -6.67376 | 34388 ft | 514 kts | 274° |
| 2026-04-28 09:52 | 51.94381 | -6.78931 | 34392 ft | 513 kts | 274° |
| 2026-04-28 09:52 | 51.94162 | -6.90419 | 34390 ft | 512 kts | 273° |
| 2026-04-28 09:53 | 51.93928 | -7.01961 | 34384 ft | 511 kts | 273° |
| 2026-04-28 09:53 | 51.93683 | -7.13480 | 34390 ft | 510 kts | 273° |
| 2026-04-28 09:54 | 51.93428 | -7.24936 | 34388 ft | 510 kts | 273° |
| 2026-04-28 09:54 | 51.93161 | -7.36391 | 34356 ft | 510 kts | 272° |
| 2026-04-28 09:55 | 51.92882 | -7.47884 | 34379 ft | 508 kts | 272° |
| 2026-04-28 09:55 | 51.92594 | -7.59286 | 34384 ft | 507 kts | 272° |
| 2026-04-28 09:56 | 51.92297 | -7.70651 | 34380 ft | 507 kts | 272° |
| 2026-04-28 09:56 | 51.91987 | -7.82056 | 34380 ft | 506 kts | 272° |
| 2026-04-28 09:57 | 51.91667 | -7.93425 | 34374 ft | 504 kts | 272° |
| 2026-04-28 09:57 | 51.91338 | -8.04710 | 34367 ft | 503 kts | 272° |
| 2026-04-28 09:58 | 51.91000 | -8.15989 | 34378 ft | 502 kts | 272° |
| 2026-04-28 09:58 | 51.90650 | -8.27295 | 34375 ft | 501 kts | 272° |
| 2026-04-28 09:59 | 51.90290 | -8.38543 | 34364 ft | 500 kts | 271° |
| 2026-04-28 09:59 | 51.89920 | -8.49771 | 34372 ft | 500 kts | 271° |
| 2026-04-28 10:00 | 51.89539 | -8.61023 | 34372 ft | 499 kts | 271° |
| 2026-04-28 10:00 | 51.89148 | -8.72248 | 34382 ft | 499 kts | 271° |
| 2026-04-28 10:01 | 51.88748 | -8.83433 | 34361 ft | 500 kts | 271° |
| 2026-04-28 10:01 | 51.88336 | -8.94629 | 34370 ft | 499 kts | 270° |
| 2026-04-28 10:02 | 51.87910 | -9.05899 | 34375 ft | 498 kts | 270° |
| 2026-04-28 10:02 | 51.87480 | -9.17045 | 34376 ft | 498 kts | 270° |
| 2026-04-28 10:03 | 51.87039 | -9.28174 | 34378 ft | 497 kts | 270° |
| 2026-04-28 10:03 | 51.86585 | -9.39365 | 34373 ft | 496 kts | 270° |
| 2026-04-28 10:04 | 51.86124 | -9.50443 | 34371 ft | 495 kts | 270° |
| 2026-04-28 10:04 | 51.85651 | -9.61564 | 34385 ft | 494 kts | 270° |
| 2026-04-28 10:05 | 51.85172 | -9.72610 | 34374 ft | 494 kts | 270° |
| 2026-04-28 10:05 | 51.84682 | -9.83664 | 34375 ft | 493 kts | 269° |
| 2026-04-28 10:06 | 51.84182 | -9.94698 | 34384 ft | 492 kts | 269° |
| 2026-04-28 10:06 | 51.83670 | -10.05755 | 34375 ft | 493 kts | 269° |
| 2026-04-28 10:07 | 51.83148 | -10.16818 | 34391 ft | 493 kts | 269° |
| 2026-04-28 10:07 | 51.82618 | -10.27813 | 34386 ft | 494 kts | 269° |
| 2026-04-28 10:08 | 51.82076 | -10.38858 | 34389 ft | 494 kts | 269° |
| 2026-04-28 10:08 | 51.81519 | -10.49992 | 34372 ft | 494 kts | 268° |
| 2026-04-28 10:09 | 51.80959 | -10.60976 | 34387 ft | 494 kts | 268° |
| 2026-04-28 10:09 | 51.80381 | -10.72087 | 34388 ft | 494 kts | 268° |
| 2026-04-28 10:10 | 51.79797 | -10.83118 | 34390 ft | 492 kts | 268° |
| 2026-04-28 10:10 | 51.79204 | -10.94117 | 34382 ft | 491 kts | 268° |
| 2026-04-28 10:11 | 51.78606 | -11.05018 | 34387 ft | 491 kts | 268° |
| 2026-04-28 10:11 | 51.77992 | -11.16036 | 34387 ft | 490 kts | 268° |
| 2026-04-28 10:12 | 51.77372 | -11.26989 | 34379 ft | 490 kts | 267° |
| 2026-04-28 10:12 | 51.76740 | -11.37945 | 34384 ft | 489 kts | 267° |
| 2026-04-28 10:13 | 51.76101 | -11.48853 | 34389 ft | 489 kts | 267° |
| 2026-04-28 10:13 | 51.75453 | -11.59742 | 34391 ft | 490 kts | 267° |
| 2026-04-28 10:14 | 51.74789 | -11.70725 | 34388 ft | 490 kts | 266° |
| 2026-04-28 10:14 | 51.74117 | -11.81658 | 34388 ft | 490 kts | 266° |
| 2026-04-28 10:15 | 51.73437 | -11.92551 | 34390 ft | 490 kts | 266° |
| 2026-04-28 10:15 | 51.72743 | -12.03516 | 34391 ft | 490 kts | 266° |
| 2026-04-28 10:16 | 51.72044 | -12.14405 | 34389 ft | 490 kts | 266° |
| 2026-04-28 10:16 | 51.71334 | -12.25291 | 34384 ft | 489 kts | 266° |
| 2026-04-28 10:17 | 51.70611 | -12.36210 | 34387 ft | 488 kts | 266° |
| 2026-04-28 10:17 | 51.69881 | -12.47090 | 34387 ft | 487 kts | 266° |
| 2026-04-28 10:18 | 51.69147 | -12.57877 | 34387 ft | 487 kts | 265° |
| 2026-04-28 10:18 | 51.68401 | -12.68699 | 34384 ft | 486 kts | 265° |
| 2026-04-28 10:19 | 51.67639 | -12.79590 | 34384 ft | 486 kts | 265° |
| 2026-04-28 10:19 | 51.66876 | -12.90357 | 34388 ft | 485 kts | 265° |
| 2026-04-28 10:20 | 51.66232 | -12.99337 | 34384 ft | 485 kts | 265° |
| 2026-04-28 10:20 | 51.65450 | -13.10111 | 34383 ft | 485 kts | 265° |
| 2026-04-28 10:21 | 51.64653 | -13.20959 | 34394 ft | 485 kts | 264° |
| 2026-04-28 10:21 | 51.63850 | -13.31731 | 34378 ft | 485 kts | 264° |
| 2026-04-28 10:22 | 51.63042 | -13.42439 | 34390 ft | 484 kts | 264° |
| 2026-04-28 10:22 | 51.62221 | -13.53202 | 34385 ft | 484 kts | 264° |
| 2026-04-28 10:23 | 51.61389 | -13.63963 | 34375 ft | 484 kts | 264° |
| 2026-04-28 10:23 | 51.60550 | -13.74691 | 34385 ft | 484 kts | 263° |
| 2026-04-28 10:24 | 51.59695 | -13.85482 | 34384 ft | 483 kts | 263° |
| 2026-04-28 10:24 | 51.58842 | -13.96130 | 34393 ft | 483 kts | 263° |
| 2026-04-28 10:25 | 51.57973 | -14.06848 | 34389 ft | 483 kts | 263° |
| 2026-04-28 10:25 | 51.57094 | -14.17573 | 34397 ft | 483 kts | 263° |
| 2026-04-28 10:26 | 51.56208 | -14.28261 | 34380 ft | 483 kts | 263° |
| 2026-04-28 10:26 | 51.55313 | -14.38930 | 34395 ft | 483 kts | 263° |
| 2026-04-28 10:27 | 51.54405 | -14.49634 | 34397 ft | 483 kts | 263° |
| 2026-04-28 10:27 | 51.53489 | -14.60322 | 34381 ft | 483 kts | 262° |
| 2026-04-28 10:28 | 51.52562 | -14.71007 | 34398 ft | 481 kts | 262° |
| 2026-04-28 10:29 | 51.51168 | -14.86879 | 34386 ft | 478 kts | 262° |
| 2026-04-28 10:29 | 51.50230 | -14.97437 | 34389 ft | 477 kts | 262° |
| 2026-04-28 10:30 | 51.49333 | -15.07979 | 34387 ft | 477 kts | 263° |
| 2026-04-28 10:30 | 51.48513 | -15.18532 | 34393 ft | 477 kts | 263° |
| 2026-04-28 10:31 | 51.47687 | -15.29118 | 34394 ft | 478 kts | 263° |
| 2026-04-28 10:31 | 51.46836 | -15.39746 | 34397 ft | 479 kts | 262° |
| 2026-04-28 10:32 | 51.45972 | -15.50333 | 34396 ft | 480 kts | 262° |
| 2026-04-28 10:32 | 51.45098 | -15.60895 | 34394 ft | 479 kts | 262° |
| 2026-04-28 10:33 | 51.44211 | -15.71502 | 34392 ft | 479 kts | 262° |
| 2026-04-28 10:33 | 51.43319 | -15.82043 | 34393 ft | 478 kts | 262° |
| 2026-04-28 10:34 | 51.42418 | -15.92588 | 34386 ft | 478 kts | 262° |
| 2026-04-28 10:34 | 51.41509 | -16.03115 | 34396 ft | 478 kts | 261° |
| 2026-04-28 10:35 | 51.40590 | -16.13645 | 34389 ft | 477 kts | 261° |
| 2026-04-28 10:35 | 51.39660 | -16.24182 | 34395 ft | 475 kts | 261° |
| 2026-04-28 10:36 | 51.38729 | -16.34617 | 34390 ft | 473 kts | 261° |
| 2026-04-28 10:36 | 51.37797 | -16.44960 | 34382 ft | 472 kts | 261° |
| 2026-04-28 10:37 | 51.36849 | -16.55382 | 34393 ft | 471 kts | 260° |
| 2026-04-28 10:37 | 51.35898 | -16.65721 | 34386 ft | 471 kts | 260° |
| 2026-04-28 10:38 | 51.32718 | -16.99593 | 34398 ft | 470 kts | 259° |
| 2026-04-28 10:38 | 51.28717 | -17.40731 | 34389 ft | 471 kts | 259° |
| 2026-04-28 10:39 | 51.24556 | -17.81957 | 34371 ft | 472 kts | 258° |
| 2026-04-28 10:39 | 51.20204 | -18.23547 | 34366 ft | 473 kts | 257° |
| 2026-04-28 10:40 | 51.15725 | -18.64872 | 34364 ft | 473 kts | 257° |
| 2026-04-28 10:40 | 51.11105 | -19.06080 | 34354 ft | 472 kts | 257° |
| 2026-04-28 10:41 | 51.06354 | -19.47091 | 34333 ft | 471 kts | 257° |
| 2026-04-28 10:41 | 51.01494 | -19.87750 | 34330 ft | 470 kts | 257° |
| 2026-04-28 10:41 | 50.98188 | -20.07921 | 34330 ft | 466 kts | 246° |
| 2026-04-28 10:42 | 50.93485 | -20.26900 | 34309 ft | 467 kts | 246° |
| 2026-04-28 10:42 | 50.84069 | -20.65174 | 34328 ft | 465 kts | 246° |
| 2026-04-28 10:43 | 50.74561 | -21.03202 | 34291 ft | 464 kts | 246° |
| 2026-04-28 10:43 | 50.64959 | -21.40958 | 34274 ft | 463 kts | 245° |
| 2026-04-28 10:44 | 50.55334 | -21.78182 | 34260 ft | 460 kts | 245° |
| 2026-04-28 10:44 | 50.45627 | -22.15119 | 34250 ft | 456 kts | 244° |
| 2026-04-28 10:45 | 50.35856 | -22.51710 | 34241 ft | 452 kts | 243° |
| 2026-04-28 10:45 | 50.26092 | -22.87701 | 34229 ft | 449 kts | 243° |
| 2026-04-28 10:46 | 50.16259 | -23.23397 | 34222 ft | 447 kts | 242° |
| 2026-04-28 10:46 | 50.06339 | -23.58866 | 34225 ft | 446 kts | 242° |
| 2026-04-28 10:47 | 49.96316 | -23.94170 | 34166 ft | 447 kts | 241° |
| 2026-04-28 10:47 | 49.86157 | -24.29433 | 34083 ft | 449 kts | 240° |
| 2026-04-28 10:47 | 49.81006 | -24.47119 | 34197 ft | 446 kts | 240° |
| 2026-04-28 10:48 | 49.75912 | -24.64473 | 34161 ft | 447 kts | 240° |
| 2026-04-28 10:48 | 49.65563 | -24.99363 | 34161 ft | 447 kts | 240° |
| 2026-04-28 10:49 | 49.55140 | -25.34004 | 34151 ft | 445 kts | 239° |
| 2026-04-28 10:49 | 49.44617 | -25.68487 | 34093 ft | 443 kts | 238° |
| 2026-04-28 10:50 | 49.34085 | -26.02522 | 34099 ft | 442 kts | 238° |
| 2026-04-28 10:50 | 49.23508 | -26.36241 | 34071 ft | 440 kts | 237° |
| 2026-04-28 10:51 | 49.12819 | -26.69858 | 34103 ft | 435 kts | 236° |
| 2026-04-28 10:51 | 49.02238 | -27.02694 | 33995 ft | 436 kts | 236° |
| 2026-04-28 10:52 | 48.91500 | -27.35587 | 34083 ft | 434 kts | 235° |
| 2026-04-28 10:52 | 48.80670 | -27.68336 | 34041 ft | 433 kts | 235° |
| 2026-04-28 10:53 | 48.69727 | -28.01005 | 34062 ft | 433 kts | 235° |
| 2026-04-28 10:53 | 48.58750 | -28.33358 | 33996 ft | 436 kts | 235° |
| 2026-04-28 10:54 | 48.47597 | -28.65824 | 34014 ft | 437 kts | 235° |
| 2026-04-28 10:54 | 48.36261 | -28.98408 | 34004 ft | 437 kts | 235° |
| 2026-04-28 10:55 | 48.24931 | -29.30577 | 34109 ft | 435 kts | 234° |
| 2026-04-28 10:55 | 48.13537 | -29.62526 | 34009 ft | 438 kts | 234° |
| 2026-04-28 10:56 | 48.01896 | -29.94782 | 33998 ft | 439 kts | 234° |
| 2026-04-28 10:56 | 47.88010 | -30.23923 | 33997 ft | 431 kts | 227° |
| 2026-04-28 10:57 | 47.50262 | -30.97971 | 33993 ft | 435 kts | 227° |
| 2026-04-28 10:57 | 46.91088 | -32.10123 | 33945 ft | 445 kts | 227° |
| 2026-04-28 10:57 | 46.59840 | -32.67551 | 34098 ft | 453 kts | 227° |
| 2026-04-28 10:58 | 46.27550 | -33.25727 | 34097 ft | 469 kts | 228° |
| 2026-04-28 10:58 | 45.93977 | -33.84919 | 33909 ft | 475 kts | 228° |
| 2026-04-28 10:58 | 45.60476 | -34.42749 | 33910 ft | 476 kts | 228° |
| 2026-04-28 10:59 | 44.91024 | -35.58930 | 33931 ft | 490 kts | 229° |
| 2026-04-28 10:59 | 44.18160 | -36.75951 | 33967 ft | 503 kts | 229° |
| 2026-04-28 11:00 | 43.42900 | -37.91992 | 33872 ft | 515 kts | 230° |
| 2026-04-28 11:00 | 42.64387 | -39.08066 | 33943 ft | 519 kts | 230° |
| 2026-04-28 11:01 | 41.86614 | -40.21019 | 33620 ft | 499 kts | 240° |
| 2026-04-28 11:01 | 41.51834 | -40.80058 | 34045 ft | 513 kts | 239° |
| 2026-04-28 11:01 | 41.15685 | -41.38848 | 33889 ft | 509 kts | 240° |
| 2026-04-28 11:02 | 40.44460 | -42.51532 | 34005 ft | 491 kts | 238° |
| 2026-04-28 11:02 | 39.74619 | -43.58056 | 34103 ft | 477 kts | 236° |
| 2026-04-28 11:03 | 39.05386 | -44.60129 | 34046 ft | 464 kts | 234° |
| 2026-04-28 11:03 | 38.37016 | -45.57721 | 34118 ft | 460 kts | 233° |
| 2026-04-28 11:03 | 38.02494 | -46.05963 | 34267 ft | 467 kts | 234° |
| 2026-04-28 11:04 | 37.66736 | -46.55117 | 34301 ft | 475 kts | 234° |
| 2026-04-28 11:04 | 36.94609 | -47.52050 | 34164 ft | 469 kts | 233° |
| 2026-04-28 11:04 | 36.59111 | -47.98673 | 34096 ft | 457 kts | 233° |
| 2026-04-28 11:05 | 36.24285 | -48.43787 | 34251 ft | 459 kts | 233° |
| 2026-04-28 11:05 | 35.88290 | -48.89850 | 34408 ft | 467 kts | 233° |
| 2026-04-28 11:05 | 35.52202 | -49.35299 | 34309 ft | 468 kts | 233° |
| 2026-04-28 11:05 | 35.15647 | -49.80768 | 34184 ft | 459 kts | 232° |
| 2026-04-28 11:06 | 34.82305 | -50.25076 | 34059 ft | 430 kts | 237° |
| 2026-04-28 11:06 | 34.50740 | -50.70064 | 34342 ft | 437 kts | 236° |
| 2026-04-28 11:06 | 34.18593 | -51.15105 | 34368 ft | 448 kts | 234° |
| 2026-04-28 11:06 | 33.85780 | -51.60455 | 34217 ft | 445 kts | 234° |
| 2026-04-28 11:07 | 33.59278 | -51.96690 | 34732 ft | 456 kts | 233° |
| 2026-04-28 11:07 | 33.42198 | -52.19787 | 34900 ft | 460 kts | 233° |
| 2026-04-28 11:07 | 33.25667 | -52.42034 | 34703 ft | 439 kts | 232° |
| 2026-04-28 11:07 | 33.09603 | -52.63546 | 34726 ft | 427 kts | 232° |
| 2026-04-28 11:08 | 32.93862 | -52.84483 | 34851 ft | 434 kts | 232° |
| 2026-04-28 11:08 | 32.77377 | -53.06285 | 34908 ft | 446 kts | 232° |
| 2026-04-28 11:08 | 32.60941 | -53.27894 | 34764 ft | 440 kts | 231° |
| 2026-04-28 11:08 | 32.44613 | -53.49213 | 34712 ft | 428 kts | 231° |
| 2026-04-28 11:09 | 32.28697 | -53.69911 | 34784 ft | 429 kts | 231° |
| 2026-04-28 11:09 | 32.12309 | -53.91089 | 34881 ft | 441 kts | 231° |
| 2026-04-28 11:09 | 31.95588 | -54.12559 | 34798 ft | 442 kts | 230° |
| 2026-04-28 11:10 | 31.63021 | -54.54043 | 34708 ft | 422 kts | 230° |
| 2026-04-28 11:10 | 31.30709 | -54.94749 | 34837 ft | 436 kts | 229° |
| 2026-04-28 11:11 | 30.94423 | -55.39939 | 34636 ft | 422 kts | 229° |
| 2026-04-28 11:11 | 30.30580 | -56.18133 | 34832 ft | 421 kts | 229° |
| 2026-04-28 11:12 | 29.64504 | -56.97514 | 34596 ft | 429 kts | 228° |
| 2026-04-28 11:12 | 28.98827 | -57.74765 | 34627 ft | 422 kts | 228° |
| 2026-04-28 11:12 | 28.65575 | -58.13260 | 34734 ft | 427 kts | 229° |
| 2026-04-28 11:13 | 28.32371 | -58.51458 | 34712 ft | 430 kts | 229° |
| 2026-04-28 11:13 | 27.98593 | -58.89848 | 34591 ft | 425 kts | 229° |
| 2026-04-28 11:13 | 27.65816 | -59.26743 | 34561 ft | 411 kts | 229° |
| 2026-04-28 11:13 | 27.33681 | -59.62702 | 34668 ft | 410 kts | 230° |
| 2026-04-28 11:14 | 27.00928 | -59.98988 | 34797 ft | 418 kts | 229° |
| 2026-04-28 11:14 | 26.64157 | -60.32182 | 34606 ft | 422 kts | 225° |
| 2026-04-28 11:14 | 26.27625 | -60.65065 | 34543 ft | 415 kts | 224° |
| 2026-04-28 11:15 | 25.55574 | -61.28796 | 34648 ft | 412 kts | 224° |
| 2026-04-28 11:15 | 24.83901 | -61.91195 | 34644 ft | 412 kts | 224° |
| 2026-04-28 11:16 | 24.11933 | -62.52906 | 34664 ft | 412 kts | 223° |
| 2026-04-28 11:16 | 23.51189 | -63.04280 | 34724 ft | 413 kts | 222° |
| 2026-04-28 11:16 | 22.97391 | -63.30935 | 34568 ft | 419 kts | 212° |
| 2026-04-28 11:17 | 22.75769 | -63.41446 | 35264 ft | 437 kts | 211° |
| 2026-04-28 11:17 | 22.53726 | -63.52076 | 37390 ft | 432 kts | 211° |
| 2026-04-28 11:17 | 22.31696 | -63.62679 | 38049 ft | 436 kts | 211° |
| 2026-04-28 11:18 | 21.88105 | -63.83548 | 37956 ft | 414 kts | 211° |
| 2026-04-28 11:18 | 21.75017 | -63.91322 | 37929 ft | 397 kts | 217° |
| 2026-04-28 11:18 | 21.55846 | -64.03596 | 38099 ft | 405 kts | 216° |
| 2026-04-28 11:18 | 21.36225 | -64.15930 | 38189 ft | 418 kts | 215° |
| 2026-04-28 11:19 | 21.15858 | -64.28714 | 38095 ft | 425 kts | 215° |
| 2026-04-28 11:19 | 20.86966 | -64.46789 | 37891 ft | 418 kts | 215° |
| 2026-04-28 11:19 | 20.46728 | -64.71799 | 37930 ft | 414 kts | 215° |
| 2026-04-28 11:19 | 20.06629 | -64.96582 | 38194 ft | 426 kts | 215° |
| 2026-04-28 11:20 | 19.64750 | -65.22320 | 38204 ft | 439 kts | 215° |
| 2026-04-28 11:20 | 19.22412 | -65.48164 | 38048 ft | 443 kts | 214° |
| 2026-04-28 11:20 | 18.79662 | -65.74111 | 37950 ft | 438 kts | 214° |
| 2026-04-28 11:21 | 17.96605 | -66.24110 | 38048 ft | 432 kts | 213° |
| 2026-04-28 11:21 | 17.12224 | -66.74340 | 38089 ft | 441 kts | 213° |
| 2026-04-28 11:22 | 16.25962 | -67.25140 | 38030 ft | 443 kts | 212° |
| 2026-04-28 11:22 | 15.34779 | -67.64925 | 37901 ft | 449 kts | 200° |
| 2026-04-28 11:23 | 14.95380 | -67.77582 | 37973 ft | 451 kts | 199° |
| 2026-04-28 11:23 | 14.83404 | -67.81286 | 37994 ft | 451 kts | 199° |
| 2026-04-28 11:24 | 14.72602 | -67.84651 | 38000 ft | 452 kts | 199° |
| 2026-04-28 11:24 | 14.60577 | -67.88390 | 38034 ft | 453 kts | 199° |
| 2026-04-28 11:25 | 14.48479 | -67.92147 | 37999 ft | 455 kts | 199° |
| 2026-04-28 11:25 | 14.36301 | -67.95924 | 37990 ft | 458 kts | 199° |
| 2026-04-28 11:26 | 14.24085 | -67.99709 | 38094 ft | 458 kts | 199° |
| 2026-04-28 11:26 | 14.11863 | -68.03492 | 38041 ft | 462 kts | 198° |
| 2026-04-28 11:27 | 14.03252 | -68.06154 | 37837 ft | 457 kts | 198° |
| 2026-04-28 11:27 | 13.97225 | -68.08015 | 36514 ft | 456 kts | 198° |
| 2026-04-28 11:27 | 13.91052 | -68.09923 | 34848 ft | 464 kts | 199° |
| 2026-04-28 11:27 | 13.84901 | -68.11820 | 33951 ft | 453 kts | 199° |
| 2026-04-28 11:28 | 13.78957 | -68.13653 | 33458 ft | 450 kts | 198° |
| 2026-04-28 11:28 | 13.72920 | -68.15515 | 33089 ft | 450 kts | 198° |
| 2026-04-28 11:28 | 13.66982 | -68.17345 | 32779 ft | 445 kts | 198° |
| 2026-04-28 11:28 | 13.61157 | -68.19137 | 31890 ft | 429 kts | 198° |
| 2026-04-28 11:29 | 13.58134 | -68.20068 | 31189 ft | 432 kts | 198° |
| 2026-04-28 11:29 | 13.55274 | -68.20949 | 30639 ft | 431 kts | 198° |
| 2026-04-28 11:29 | 13.52396 | -68.21836 | 30145 ft | 428 kts | 198° |
| 2026-04-28 11:29 | 13.49658 | -68.22678 | 29681 ft | 424 kts | 198° |
| 2026-04-28 11:30 | 13.46835 | -68.23545 | 29211 ft | 419 kts | 198° |
| 2026-04-28 11:30 | 13.41241 | -68.25272 | 28477 ft | 417 kts | 197° |
| 2026-04-28 11:30 | 13.38509 | -68.26121 | 27901 ft | 408 kts | 197° |
| 2026-04-28 11:31 | 13.35818 | -68.26957 | 27124 ft | 406 kts | 197° |
| 2026-04-28 11:31 | 13.33100 | -68.27799 | 26487 ft | 406 kts | 197° |
| 2026-04-28 11:31 | 13.30424 | -68.28626 | 26089 ft | 399 kts | 197° |
| 2026-04-28 11:31 | 13.27769 | -68.29443 | 25511 ft | 388 kts | 197° |
| 2026-04-28 11:32 | 13.25240 | -68.30213 | 24645 ft | 377 kts | 197° |
| 2026-04-28 11:32 | 13.22736 | -68.30973 | 23596 ft | 378 kts | 197° |
| 2026-04-28 11:32 | 13.20200 | -68.31742 | 22611 ft | 374 kts | 197° |
| 2026-04-28 11:32 | 13.17752 | -68.32487 | 21839 ft | 365 kts | 197° |
| 2026-04-28 11:33 | 13.15338 | -68.33223 | 20766 ft | 366 kts | 197° |
| 2026-04-28 11:33 | 13.12872 | -68.33977 | 19753 ft | 368 kts | 197° |
| 2026-04-28 11:33 | 13.10437 | -68.34722 | 18967 ft | 361 kts | 197° |
| 2026-04-28 11:33 | 13.08042 | -68.35456 | 17953 ft | 363 kts | 197° |
| 2026-04-28 11:34 | 13.05642 | -68.36191 | 17012 ft | 360 kts | 196° |
| 2026-04-28 11:34 | 13.03262 | -68.36921 | 16217 ft | 353 kts | 196° |
| 2026-04-28 11:34 | 13.00865 | -68.37653 | 15670 ft | 362 kts | 196° |
| 2026-04-28 11:34 | 12.98458 | -68.38387 | 15183 ft | 363 kts | 195° |
| 2026-04-28 11:35 | 12.96043 | -68.39126 | 14722 ft | 363 kts | 195° |
| 2026-04-28 11:35 | 12.93655 | -68.39859 | 14235 ft | 347 kts | 194° |
| 2026-04-28 11:35 | 12.91396 | -68.40555 | 13814 ft | 332 kts | 194° |
| 2026-04-28 11:35 | 12.89210 | -68.41227 | 13313 ft | 320 kts | 194° |
| 2026-04-28 11:36 | 12.87138 | -68.41863 | 12907 ft | 308 kts | 194° |
| 2026-04-28 11:36 | 12.85133 | -68.42478 | 12503 ft | 298 kts | 192° |
| 2026-04-28 11:36 | 12.83115 | -68.43093 | 12140 ft | 304 kts | 192° |
| 2026-04-28 11:36 | 12.81055 | -68.43719 | 11746 ft | 319 kts | 194° |
| 2026-04-28 11:37 | 12.78891 | -68.44378 | 11332 ft | 331 kts | 193° |
| 2026-04-28 11:37 | 12.76660 | -68.45061 | 10887 ft | 333 kts | 193° |
| 2026-04-28 11:37 | 12.74430 | -68.45744 | 10512 ft | 330 kts | 194° |
| 2026-04-28 11:37 | 12.72282 | -68.46402 | 10367 ft | 321 kts | 194° |
| 2026-04-28 11:38 | 12.70184 | -68.47046 | 10217 ft | 311 kts | 193° |
| 2026-04-28 11:38 | 12.68135 | -68.47673 | 10083 ft | 301 kts | 192° |
| 2026-04-28 11:38 | 12.66140 | -68.48218 | 9902 ft | 287 kts | 184° |
| 2026-04-28 11:38 | 12.64195 | -68.48263 | 9658 ft | 278 kts | 175° |
| 2026-04-28 11:39 | 12.62266 | -68.48185 | 9395 ft | 274 kts | 174° |
| 2026-04-28 11:39 | 12.60384 | -68.48113 | 9145 ft | 272 kts | 175° |
| 2026-04-28 11:39 | 12.58499 | -68.48047 | 8891 ft | 269 kts | 174° |
| 2026-04-28 11:39 | 12.56632 | -68.47986 | 8645 ft | 266 kts | 174° |
| 2026-04-28 11:40 | 12.54812 | -68.47931 | 8398 ft | 263 kts | 174° |
| 2026-04-28 11:40 | 12.53005 | -68.47879 | 8163 ft | 260 kts | 175° |
| 2026-04-28 11:40 | 12.51191 | -68.47828 | 7926 ft | 258 kts | 175° |
| 2026-04-28 11:40 | 12.49402 | -68.47780 | 7698 ft | 259 kts | 174° |
| 2026-04-28 11:41 | 12.47579 | -68.47731 | 7456 ft | 261 kts | 174° |
| 2026-04-28 11:41 | 12.45774 | -68.47683 | 7218 ft | 262 kts | 174° |
| 2026-04-28 11:41 | 12.43943 | -68.47636 | 6979 ft | 263 kts | 175° |
| 2026-04-28 11:41 | 12.42134 | -68.47589 | 6734 ft | 263 kts | 174° |
| 2026-04-28 11:42 | 12.40297 | -68.47543 | 6492 ft | 261 kts | 175° |
| 2026-04-28 11:42 | 12.38507 | -68.47498 | 6241 ft | 258 kts | 174° |
| 2026-04-28 11:42 | 12.36708 | -68.47453 | 5994 ft | 255 kts | 173° |
| 2026-04-28 11:42 | 12.34949 | -68.47404 | 5757 ft | 252 kts | 175° |
| 2026-04-28 11:43 | 12.33192 | -68.47361 | 5520 ft | 252 kts | 174° |
| 2026-04-28 11:43 | 12.31446 | -68.47319 | 5303 ft | 253 kts | 174° |
| 2026-04-28 11:43 | 12.29692 | -68.47275 | 5169 ft | 248 kts | 174° |
| 2026-04-28 11:43 | 12.28023 | -68.47235 | 5074 ft | 238 kts | 174° |
| 2026-04-28 11:44 | 12.26387 | -68.47194 | 4921 ft | 228 kts | 175° |
| 2026-04-28 11:44 | 12.24839 | -68.47156 | 4590 ft | 221 kts | 174° |
| 2026-04-28 11:44 | 12.23318 | -68.47117 | 4256 ft | 215 kts | 173° |
| 2026-04-28 11:44 | 12.21858 | -68.47079 | 4066 ft | 209 kts | 174° |
| 2026-04-28 11:45 | 12.21595 | -68.47071 | 3993 ft | 211 kts | 173° |
| 2026-04-28 11:45 | 12.21400 | -68.47066 | 3921 ft | 213 kts | 173° |
| 2026-04-28 11:45 | 12.19869 | -68.47007 | 3437 ft | 224 kts | 171° |
| 2026-04-28 11:46 | 12.18319 | -68.46886 | 3095 ft | 224 kts | 168° |
| 2026-04-28 11:46 | 12.16784 | -68.46649 | 2836 ft | 219 kts | 164° |
| 2026-04-28 11:46 | 12.15284 | -68.46470 | 2585 ft | 210 kts | 166° |
| 2026-04-28 11:46 | 12.14078 | -68.45886 | 2533 ft | 194 kts | 125° |
| 2026-04-28 11:47 | 12.13662 | -68.44638 | 2527 ft | 182 kts | 94° |
| 2026-04-28 11:47 | 12.13626 | -68.43359 | 2502 ft | 177 kts | 94° |
| 2026-04-28 11:47 | 12.13571 | -68.42138 | 2488 ft | 169 kts | 94° |
| 2026-04-28 11:47 | 12.13522 | -68.40940 | 2489 ft | 169 kts | 94° |
| 2026-04-28 11:48 | 12.13481 | -68.39730 | 2416 ft | 171 kts | 93° |
| 2026-04-28 11:48 | 12.13454 | -68.38542 | 2260 ft | 165 kts | 92° |
| 2026-04-28 11:48 | 12.13430 | -68.37388 | 1901 ft | 155 kts | 93° |
| 2026-04-28 11:48 | 12.13391 | -68.36337 | 1569 ft | 144 kts | 94° |
| 2026-04-28 11:49 | 12.13355 | -68.35355 | 1324 ft | 134 kts | 94° |
| 2026-04-28 11:49 | 12.13296 | -68.34426 | 1088 ft | 127 kts | 92° |
| 2026-04-28 11:49 | 12.13281 | -68.33517 | 1043 ft | 129 kts | 92° |
| 2026-04-28 11:49 | 12.13269 | -68.32596 | 877 ft | 131 kts | 93° |
| 2026-04-28 11:50 | 12.13228 | -68.31639 | 813 ft | 136 kts | 91° |
| 2026-04-28 11:50 | 12.13193 | -68.30642 | 730 ft | 141 kts | 93° |
| 2026-04-28 11:50 | 12.13164 | -68.29659 | 495 ft | 134 kts | 92° |
| 2026-04-28 11:50 | 12.13139 | -68.28727 | 232 ft | 129 kts | 96° |
| 2026-04-28 11:51 | 12.13110 | -68.27795 | 56 ft | 131 kts | 93° |
| 2026-04-28 11:51 | 12.13086 | -68.26933 | 33 ft | 106 kts | 92° |
| 2026-04-28 11:51 | 12.13066 | -68.26342 | 33 ft | 62 kts | 92° |
| 2026-04-28 11:51 | 12.13057 | -68.25999 | 33 ft | 45 kts | 91° |
| 2026-04-28 11:52 | 12.13047 | -68.25685 | 33 ft | 43 kts | 92° |
| 2026-04-28 11:52 | 12.13060 | -68.25465 | 34 ft | 20 kts | 62° |
| 2026-04-28 11:52 | 12.13092 | -68.25358 | 34 ft | 11 kts | 130° |
| 2026-04-28 11:52 | 12.13041 | -68.25374 | 34 ft | 8 kts | 250° |
| 2026-04-28 11:53 | 12.13040 | -68.25441 | 34 ft | 12 kts | 271° |
| 2026-04-28 11:53 | 12.13043 | -68.25595 | 33 ft | 34 kts | 272° |
| 2026-04-28 11:53 | 12.13052 | -68.25878 | 33 ft | 40 kts | 271° |
| 2026-04-28 11:53 | 12.13058 | -68.26159 | 33 ft | 40 kts | 271° |
| 2026-04-28 11:54 | 12.13070 | -68.26439 | 33 ft | 39 kts | 273° |
| 2026-04-28 11:54 | 12.13078 | -68.26710 | 33 ft | 38 kts | 272° |
| 2026-04-28 11:54 | 12.13087 | -68.26981 | 32 ft | 38 kts | 272° |
| 2026-04-28 11:54 | 12.13094 | -68.27245 | 32 ft | 37 kts | 271° |
| 2026-04-28 11:55 | 12.13100 | -68.27464 | 32 ft | 12 kts | 272° |
| 2026-04-28 11:55 | 12.13139 | -68.27507 | 32 ft | 9 kts | 6° |
| 2026-04-28 11:55 | 12.13198 | -68.27501 | 33 ft | 9 kts | 5° |
| 2026-04-28 11:55 | 12.13226 | -68.27499 | 33 ft | 1 kts | 3° |
| 2026-04-28 11:56 | 12.13278 | -68.27497 | 33 ft | 9 kts | 1° |
| 2026-04-28 11:56 | 12.13320 | -68.27496 | 32 ft | 2 kts | 1° |
| 2026-04-28 11:56 | 12.13327 | -68.27496 | 32 ft | 0 kts | 1° |